CDT,Max TemperatureF,Mean TemperatureF,Min TemperatureF,Max Dew PointF,MeanDew PointF,Min DewpointF,Max Humidity, Mean Humidity, Min Humidity, Max Sea Level PressureIn, Mean Sea Level PressureIn, Min Sea Level PressureIn, Max VisibilityMiles, Mean VisibilityMiles, Min VisibilityMiles, Max Wind SpeedMPH, Mean Wind SpeedMPH, Max Gust SpeedMPH,PrecipitationIn, CloudCover, Events, WindDirDegrees
2013-6-1,60,54,48,61,51,46,100,93,77,30.08,29.85,29.57,10,9,2,28,19,36,0.00,7,Rain,5
2013-6-2,64,53,42,48,41,27,100,68,26,30.14,30.08,30.02,10,10,10,10,6,,0.00,0,,342
2013-6-3,64,54,44,48,41,28,100,60,26,30.06,30.01,29.95,10,10,10,14,6,21,0.00,3,Rain,107
2013-6-4,60,58,55,59,54,46,100,88,63,29.99,29.95,29.91,10,10,7,22,12,28,0.38,8,Rain-Thunderstorm,124
2013-6-5,60,58,55,55,55,54,100,95,77,30.07,30.01,29.94,10,10,5,16,11,20,0.10,8,Rain,77
2013-6-6,66,60,53,54,51,45,100,75,52,30.08,30.06,30.03,10,10,5,13,6,17,0.01,5,,90
2013-6-7,71,61,51,55,50,43,100,71,35,30.06,29.97,29.87,10,10,10,15,7,20,0.00,2,Rain,166
2013-6-8,73,63,53,55,51,43,94,64,33,29.89,29.85,29.82,10,10,10,18,9,28,0.01,2,Rain,149
2013-6-9,64,60,55,63,58,55,100,93,77,29.88,29.86,29.84,10,9,5,12,4,,0.41,6,Rain,84
2013-6-10,73,62,51,64,59,52,100,88,65,29.86,29.82,29.77,10,7,0,13,4,,0.01,4,Fog-Rain,165
2013-6-11,80,68,57,64,48,21,100,59,11,29.94,29.89,29.82,10,10,7,13,5,18,0.01,1,Rain-Thunderstorm,24
2013-6-12,75,68,59,61,54,43,94,64,35,30.06,29.94,29.86,10,10,10,23,6,26,0.00,1,,359
2013-6-13,80,66,51,57,50,39,100,60,23,30.14,30.09,30.02,10,10,10,8,4,,0.00,0,,59
2013-6-14,82,73,64,64,58,54,77,59,39,30.03,29.89,29.77,10,10,10,32,12,40,0.00,2,Rain-Thunderstorm,153
2013-6-15,84,72,59,64,43,0,94,46,4,29.94,29.87,29.80,10,10,10,23,7,29,0.00,0,,272
2013-6-16,87,72,57,52,36,-4,82,38,4,29.90,29.86,29.81,10,10,10,29,10,38,0.00,0,,273
2013-6-17,78,69,60,61,54,48,83,60,34,30.05,29.96,29.90,10,10,10,17,8,25,0.00,3,,339
2013-6-18,78,68,57,61,49,39,100,56,24,30.12,30.05,29.96,10,10,10,9,5,,0.00,1,,130
2013-6-19,87,74,62,61,51,36,88,48,16,29.98,29.92,29.86,10,10,10,13,8,18,0.00,1,Thunderstorm,166
2013-6-20,82,72,62,72,66,61,100,79,61,29.92,29.87,29.82,10,10,7,39,12,48,0.77,3,Rain-Thunderstorm,133
2013-6-21,78,70,62,72,67,63,100,89,61,30.00,29.90,29.79,10,10,5,18,8,31,0.25,1,Rain-Thunderstorm,26
2013-6-22,80,73,66,72,67,64,100,85,58,29.93,29.88,29.79,10,10,7,14,7,20,0.00,1,,151
2013-6-23,78,71,64,70,64,55,100,83,44,29.84,29.72,29.64,10,9,2,23,9,29,1.49,3,Rain-Thunderstorm,229
2013-6-24,82,72,62,72,64,59,94,73,48,29.84,29.80,29.76,10,10,10,12,7,,0.00,0,,173
2013-6-25,87,78,69,75,72,66,100,86,62,29.77,29.71,29.61,10,10,5,22,7,32,0.58,3,Rain-Thunderstorm,158
2013-6-26,84,74,64,72,67,61,100,82,45,29.80,29.72,29.61,10,10,2,15,8,20,1.00,3,Rain-Thunderstorm,310
2013-6-27,84,76,69,68,59,45,94,61,25,29.88,29.84,29.80,10,10,10,28,11,38,0.00,0,,305
2013-6-28,80,73,66,64,59,54,88,64,42,29.93,29.91,29.87,10,10,10,25,15,33,0.00,1,,338
2013-6-29,80,71,62,64,61,54,100,76,39,30.05,29.99,29.93,10,10,7,17,11,23,0.00,2,,6
2013-6-30,82,70,59,64,55,39,100,62,21,30.17,30.13,30.05,10,9,7,9,3,9,0.00,1,,31